This is the latest recevied weather packets stored in our database for station/object KE8WAY. If no packets are shown the sender has not sent any weather packets the latest 10 day(s).
| Time | Temp. | Humidity | Pressure | Rain* | Wind** | Luminosity | Snow |
|---|---|---|---|---|---|---|---|
| 1777919349 | 23.89° C | 36% | 1002.5 hPa | 0 mm | - | 679 W/m² | - |
| 1777919046 | 23.33° C | 34% | 1003.1 hPa | 0 mm | - | 686 W/m² | - |
| 1777918743 | 23.33° C | 34% | 1003.2 hPa | 0 mm | - | 676 W/m² | - |
| 1777918440 | 23.89° C | 32% | 1003.3 hPa | 0 mm | - | 689 W/m² | - |
| 1777918139 | 23.89° C | 36% | 1003 hPa | 0 mm | - | 706 W/m² | - |
| 1777917837 | 23.33° C | 35% | 1003.4 hPa | 0 mm | - | 703 W/m² | - |
| 1777917535 | 23.33° C | 39% | 1003.3 hPa | 0 mm | - | 698 W/m² | - |
| 1777917231 | 22.78° C | 38% | 1003.3 hPa | 0 mm | - | 688 W/m² | - |
| 1777916930 | 23.33° C | 39% | 1003.3 hPa | 0 mm | - | 705 W/m² | - |
| 1777916627 | 22.78° C | 39% | 1003.5 hPa | 0 mm | - | 708 W/m² | - |
| 1777916324 | 22.78° C | 40% | 1003.3 hPa | 0 mm | - | 696 W/m² | - |
| 1777916020 | 22.78° C | 41% | 1003.4 hPa | 0 mm | - | 667 W/m² | - |
| 1777915717 | 22.22° C | 40% | 1003.5 hPa | 0 mm | - | 666 W/m² | - |
| 1777915414 | 22.78° C | 41% | 1003.6 hPa | 0 mm | - | 711 W/m² | - |
| 1777915110 | 22.22° C | 42% | 1003.8 hPa | 0 mm | - | 717 W/m² | - |
| 1777914807 | 22.78° C | 42% | 1004 hPa | 0 mm | - | 698 W/m² | - |
| 1777914505 | 22.78° C | 43% | 1003.8 hPa | 0 mm | - | 701 W/m² | - |
| 1777914201 | 22.22° C | 43% | 1004.3 hPa | 0 mm | - | 695 W/m² | - |
| 1777913897 | 21.67° C | 44% | 1004 hPa | 0 mm | - | 691 W/m² | - |
| 1777913594 | 21.67° C | 43% | 1004.1 hPa | 0 mm | - | 696 W/m² | - |
| 1777913290 | 21.67° C | 44% | 1004.2 hPa | 0 mm | - | 695 W/m² | - |
| 1777912988 | 21.67° C | 46% | 1004 hPa | 0 mm | - | 712 W/m² | - |
| 1777912683 | 21.67° C | 45% | 1004.3 hPa | 0 mm | - | 714 W/m² | - |
| 1777912380 | 21.67° C | 47% | 1004.3 hPa | 0 mm | - | 715 W/m² | - |
| 1777912076 | 21.67° C | 48% | 1004.5 hPa | 0 mm | - | 709 W/m² | - |
* Rain latest hour (hover to see other rain measurements)
** Current wind speed in m/s (hover to see current wind gust speed)